Breckenridge, Colorado
Current Conditions -  °F | °C
As of 8:35 PM on Saturday 22 Nov 2014 (Local Time) from KCCU Reporting Station
Light Snow Light Snow  
Wind Chill: 13°   Ceiling: 300
Heat Index: 27°   Visibility: 0.75mi
Dew Point: 19°   Wind: 18mph
Humidity: 74%   Direction: 230°SW
Pressure: 29.8"   Gusts: 32mph
Location:  39.48°N, 106.04°W
Report Text: KCCU 230335Z AUTO 23016G28KT 170V240 3/4SM -SN BKN003 OVC008 M03/M07 A2980 RMK AO2
Loading
Personal Weather Stations






























Interactive Weather Map New forecast layout! Learn more

10-Day Weather Forecast

Advertisements
Track Severe Weather on mobile